createdAt,value
2018-06-05T00:00:14.502Z,82.54
2018-06-05T00:02:43.820Z,83.78
2018-06-05T00:05:13.233Z,83.25
2018-06-05T00:07:42.818Z,84.15
2018-06-05T00:10:11.810Z,83.58
2018-06-05T00:12:40.792Z,84.07
2018-06-05T00:15:09.795Z,83.45
2018-06-05T00:17:39.805Z,84.65
2018-06-05T00:20:08.829Z,84.75
2018-06-05T00:22:37.903Z,84.62
2018-06-05T00:25:07.017Z,84.16
2018-06-05T00:27:36.087Z,85.68
2018-06-05T00:30:05.275Z,85.25
2018-06-05T00:32:34.243Z,85.10
2018-06-05T00:35:03.273Z,85.53
2018-06-05T00:37:32.276Z,84.27
2018-06-05T00:40:01.696Z,83.58
2018-06-05T00:42:30.675Z,83.93
2018-06-05T00:44:59.695Z,83.59
2018-06-05T00:47:28.767Z,84.40
2018-06-05T00:49:57.729Z,84.88
2018-06-05T00:52:26.740Z,85.26
2018-06-05T00:54:55.751Z,84.13
2018-06-05T00:57:24.790Z,84.81
2018-06-05T00:59:53.839Z,84.43
2018-06-05T01:02:22.837Z,83.72
2018-06-05T01:04:51.803Z,84.12
2018-06-05T01:07:20.827Z,85.60
2018-06-05T01:09:49.775Z,84.10
2018-06-05T01:12:18.884Z,85.28
2018-06-05T01:14:47.803Z,84.91
2018-06-05T01:17:16.756Z,85.09
2018-06-05T01:19:45.767Z,83.86
2018-06-05T01:22:14.887Z,84.09
2018-06-05T01:24:43.875Z,84.60
2018-06-05T01:27:14.343Z,84.90
2018-06-05T01:29:43.376Z,83.77
2018-06-05T01:32:12.314Z,84.58
2018-06-05T01:34:41.378Z,85.41
2018-06-05T01:37:10.540Z,85.18
2018-06-05T01:39:40.028Z,85.75
2018-06-05T01:42:09.074Z,84.74
2018-06-05T01:44:38.141Z,86.33
2018-06-05T01:47:07.175Z,86.33
2018-06-05T01:49:41.184Z,86.02
2018-06-05T01:52:10.330Z,86.22
2018-06-05T01:54:39.535Z,85.71
2018-06-05T01:57:08.533Z,85.86
2018-06-05T01:59:37.587Z,86.83
2018-06-05T02:02:06.557Z,86.09
2018-06-05T02:04:35.560Z,85.87
2018-06-05T02:07:04.541Z,85.37
2018-06-05T02:09:33.541Z,86.26
2018-06-05T02:12:02.545Z,85.65
2018-06-05T02:14:31.530Z,85.75
2018-06-05T02:17:00.535Z,85.86
2018-06-05T02:19:29.513Z,86.44
2018-06-05T02:21:58.525Z,86.86
2018-06-05T02:24:27.500Z,88.16
2018-06-05T02:26:56.571Z,87.48
2018-06-05T02:29:25.626Z,86.05
2018-06-05T02:31:55.231Z,85.96
2018-06-05T02:34:24.259Z,85.43
2018-06-05T02:36:53.221Z,86.71
2018-06-05T02:39:22.233Z,86.16
2018-06-05T02:41:51.204Z,86.30
2018-06-05T02:44:20.275Z,85.85
2018-06-05T02:46:49.313Z,85.43
2018-06-05T02:49:18.395Z,86.32
2018-06-05T02:51:47.419Z,86.49
2018-06-05T02:54:16.348Z,85.23
2018-06-05T02:56:45.389Z,86.38
2018-06-05T02:59:14.357Z,85.90
2018-06-05T03:01:43.375Z,85.45
2018-06-05T03:04:12.343Z,86.47
2018-06-05T03:06:41.347Z,86.28
2018-06-05T03:09:10.456Z,86.75
2018-06-05T03:11:39.477Z,85.22
2018-06-05T03:14:08.731Z,86.04
2018-06-05T03:16:37.690Z,86.40
2018-06-05T03:19:06.707Z,86.23
2018-06-05T03:21:35.689Z,87.08
2018-06-05T03:24:04.880Z,87.10
2018-06-05T03:26:33.851Z,87.03
2018-06-05T03:29:03.744Z,86.75
2018-06-05T03:31:32.731Z,85.80
2018-06-05T03:34:01.808Z,86.16
2018-06-05T03:36:30.842Z,86.52
2018-06-05T03:38:59.821Z,86.10
2018-06-05T03:41:30.869Z,86.30
2018-06-05T03:43:59.875Z,86.74
2018-06-05T03:46:28.942Z,86.82
2018-06-05T03:48:57.930Z,85.68
2018-06-05T03:51:27.013Z,85.91
2018-06-05T03:53:56.363Z,85.81
2018-06-05T03:56:25.407Z,86.28
2018-06-05T03:58:54.437Z,85.87
2018-06-05T04:01:23.507Z,85.87
2018-06-05T04:03:52.561Z,85.58
2018-06-05T04:06:21.698Z,86.79
2018-06-05T04:08:50.786Z,86.89
2018-06-05T04:11:19.969Z,86.49
2018-06-05T04:13:49.018Z,87.87
2018-06-05T04:16:18.010Z,88.96
2018-06-05T04:18:47.077Z,88.24
2018-06-05T04:21:17.097Z,88.25
2018-06-05T04:23:46.120Z,88.18
2018-06-05T04:26:15.240Z,87.88
2018-06-05T04:28:44.914Z,87.23
2018-06-05T04:31:14.080Z,88.09
2018-06-05T04:33:43.186Z,87.83
2018-06-05T04:36:12.317Z,87.58
2018-06-05T04:38:41.386Z,87.53
2018-06-05T04:41:10.477Z,86.90
2018-06-05T04:43:39.516Z,87.12
2018-06-05T04:46:08.500Z,85.78
2018-06-05T04:48:37.526Z,85.52
2018-06-05T04:51:06.543Z,85.00
2018-06-05T04:53:35.715Z,84.48
2018-06-05T04:56:04.757Z,84.27
2018-06-05T04:58:33.971Z,84.17
2018-06-05T05:01:03.220Z,81.93
2018-06-05T05:03:32.223Z,82.46
2018-06-05T05:06:01.401Z,81.92
2018-06-05T05:08:30.366Z,81.92
2018-06-05T05:10:59.383Z,81.18
2018-06-05T05:13:28.316Z,80.40
2018-06-05T05:15:57.534Z,80.71
2018-06-05T05:18:26.541Z,80.14
2018-06-05T05:20:55.512Z,78.22
2018-06-05T05:23:24.647Z,77.50
2018-06-05T05:25:53.705Z,78.13
2018-06-05T05:28:22.790Z,77.93
2018-06-05T05:30:51.813Z,76.53
2018-06-05T05:33:20.841Z,77.81
2018-06-05T05:35:49.981Z,76.78
2018-06-05T05:38:18.956Z,76.39
2018-06-05T05:40:48.966Z,75.67
2018-06-05T05:43:18.043Z,75.35
2018-06-05T05:45:48.090Z,75.98
2018-06-05T05:48:17.602Z,71.77
2018-06-05T05:50:46.742Z,73.09
2018-06-05T05:53:15.897Z,75.16
2018-06-05T05:55:44.919Z,73.70
2018-06-05T05:58:13.951Z,73.80
2018-06-05T06:00:43.002Z,75.32
2018-06-05T06:03:12.020Z,74.04
2018-06-05T06:05:42.294Z,72.60
2018-06-05T06:08:11.334Z,72.07
2018-06-05T06:10:40.369Z,73.23
2018-06-05T06:13:09.485Z,72.02
2018-06-05T06:15:38.517Z,72.41
2018-06-05T06:18:07.547Z,72.83
2018-06-05T06:20:37.826Z,73.81
2018-06-05T06:23:06.931Z,72.37
2018-06-05T06:25:35.913Z,73.94
2018-06-05T06:28:04.972Z,72.17
2018-06-05T06:30:34.047Z,71.28
2018-06-05T06:33:03.648Z,70.87
2018-06-05T06:35:32.697Z,72.29
2018-06-05T06:38:01.722Z,70.87
2018-06-05T06:40:31.877Z,70.04
2018-06-05T06:43:01.081Z,69.60
2018-06-05T06:45:30.305Z,68.11
2018-06-05T06:47:59.996Z,71.47
2018-06-05T06:50:29.146Z,70.01
2018-06-05T06:52:58.683Z,67.81
2018-06-05T06:55:27.674Z,64.71
2018-06-05T06:57:56.732Z,63.76
2018-06-05T07:00:26.316Z,65.04
2018-06-05T07:02:55.286Z,66.52
2018-06-05T07:05:24.283Z,66.12
2018-06-05T07:07:53.270Z,66.73
2018-06-05T07:10:22.413Z,67.41
2018-06-05T07:12:51.351Z,67.55
2018-06-05T07:15:20.523Z,69.25
2018-06-05T07:17:49.547Z,68.76
2018-06-05T07:20:18.601Z,68.15
2018-06-05T07:22:47.954Z,68.43
2018-06-05T07:25:17.741Z,69.40
2018-06-05T07:27:48.090Z,67.13
2018-06-05T07:30:17.335Z,68.47
2018-06-05T07:32:46.293Z,68.12
2018-06-05T07:35:15.421Z,68.64
2018-06-05T07:37:44.453Z,67.92
2018-06-05T07:40:13.479Z,66.89
2018-06-05T07:42:42.464Z,69.38
2018-06-05T07:45:11.574Z,70.46
2018-06-05T07:47:40.567Z,70.77
2018-06-05T07:50:09.630Z,70.98
2018-06-05T07:52:38.557Z,70.20
2018-06-05T07:55:07.670Z,70.12
2018-06-05T07:57:36.793Z,70.41
2018-06-05T08:00:05.822Z,70.15
2018-06-05T08:02:34.926Z,71.46
2018-06-05T08:05:03.939Z,72.07
2018-06-05T08:07:33.012Z,72.10
2018-06-05T08:10:02.216Z,71.15
2018-06-05T08:12:31.233Z,72.60
2018-06-05T08:15:00.274Z,72.19
2018-06-05T08:17:29.335Z,71.29
2018-06-05T08:19:58.375Z,70.53
2018-06-05T08:22:36.421Z,70.33
2018-06-05T08:25:05.424Z,70.41
2018-06-05T08:27:34.436Z,69.67
2018-06-05T08:30:03.429Z,69.54
2018-06-05T08:32:32.576Z,70.99
2018-06-05T08:35:01.995Z,70.13
2018-06-05T08:37:31.039Z,70.02
2018-06-05T08:40:00.061Z,70.21
2018-06-05T08:42:29.084Z,68.39
2018-06-05T08:44:58.341Z,67.88
2018-06-05T08:47:27.356Z,68.77
2018-06-05T08:49:56.440Z,67.90
2018-06-05T08:52:25.431Z,65.09
2018-06-05T08:54:54.419Z,63.19
2018-06-05T08:57:23.421Z,61.42
2018-06-05T08:59:52.789Z,60.87
2018-06-05T09:02:21.778Z,58.82
2018-06-05T09:04:50.840Z,61.92
2018-06-05T09:07:26.022Z,60.86
2018-06-05T09:09:55.048Z,60.51
2018-06-05T09:12:24.374Z,60.81
2018-06-05T09:14:53.380Z,57.26
2018-06-05T09:17:22.368Z,56.17
2018-06-05T09:19:51.373Z,57.88
2018-06-05T09:22:20.417Z,54.96
2018-06-05T09:24:49.554Z,54.91
2018-06-05T09:27:19.311Z,54.30
2018-06-05T09:29:49.446Z,54.72
2018-06-05T09:32:18.451Z,54.82
2018-06-05T09:34:47.671Z,54.80
2018-06-05T09:37:16.730Z,55.13
2018-06-05T09:39:45.867Z,52.41
2018-06-05T09:42:14.928Z,51.40
2018-06-05T09:44:43.942Z,51.23
2018-06-05T09:47:13.044Z,50.60
2018-06-05T09:49:42.020Z,51.68
2018-06-05T09:52:11.099Z,49.78
2018-06-05T09:54:46.519Z,49.21
2018-06-05T09:57:15.537Z,50.47
2018-06-05T09:59:44.502Z,47.33
2018-06-05T10:02:13.517Z,49.43
2018-06-05T10:04:42.591Z,49.29
2018-06-05T10:07:12.503Z,52.38
2018-06-05T10:09:41.558Z,55.82
2018-06-05T10:12:10.573Z,56.73
2018-06-05T10:14:39.638Z,57.49
2018-06-05T10:17:08.742Z,59.71
2018-06-05T10:19:37.870Z,59.88
2018-06-05T10:22:06.954Z,58.80
2018-06-05T10:24:35.955Z,60.69
2018-06-05T10:27:05.006Z,62.57
2018-06-05T10:29:34.135Z,56.86
2018-06-05T10:32:03.322Z,58.90
2018-06-05T10:34:32.720Z,47.98
2018-06-05T10:37:02.966Z,44.46
2018-06-05T10:39:32.046Z,43.77
2018-06-05T10:42:01.164Z,41.24
2018-06-05T10:44:30.275Z,45.24
2018-06-05T10:46:59.424Z,39.98
2018-06-05T10:49:28.537Z,42.08
2018-06-05T10:51:57.563Z,42.02
2018-06-05T10:54:27.201Z,36.66
2018-06-05T10:56:56.227Z,40.53
2018-06-05T10:59:25.285Z,40.41
2018-06-05T11:01:54.345Z,42.92
2018-06-05T11:04:23.490Z,41.81
2018-06-05T11:06:52.661Z,43.42
2018-06-05T11:09:21.908Z,41.00
2018-06-05T11:11:51.054Z,44.40
2018-06-05T11:14:20.400Z,40.85
2018-06-05T11:16:49.467Z,44.20
2018-06-05T11:19:18.661Z,46.68
2018-06-05T11:21:47.813Z,50.57
2018-06-05T11:24:16.793Z,56.79
2018-06-05T11:26:45.844Z,57.33
2018-06-05T11:29:15.218Z,60.29
2018-06-05T11:31:44.347Z,60.47
2018-06-05T11:34:13.349Z,62.13
2018-06-05T11:36:42.786Z,59.93
2018-06-05T11:39:11.836Z,62.22
2018-06-05T11:41:40.813Z,61.31
2018-06-05T11:44:09.877Z,60.29
2018-06-05T11:46:38.986Z,61.17
2018-06-05T11:49:08.097Z,61.48
2018-06-05T11:51:37.104Z,60.80
2018-06-05T11:54:06.170Z,62.73
2018-06-05T11:56:35.198Z,61.94
2018-06-05T11:59:04.282Z,60.13
2018-06-05T12:01:33.306Z,56.79
2018-06-05T12:04:02.433Z,55.21
2018-06-05T12:06:31.603Z,49.29
2018-06-05T12:09:02.036Z,44.57
2018-06-05T12:14:07.007Z,45.09
2018-06-05T12:16:36.309Z,48.39
2018-06-05T12:19:05.343Z,52.25
2018-06-05T12:21:34.916Z,53.90
2018-06-05T12:24:04.098Z,54.72
2018-06-05T12:26:33.324Z,53.79
2018-06-05T12:29:02.515Z,54.77
2018-06-05T12:31:31.548Z,55.00
2018-06-05T12:34:00.599Z,56.83
2018-06-05T12:36:29.629Z,56.20
2018-06-05T12:38:58.676Z,52.71
2018-06-05T12:41:29.095Z,56.28
2018-06-05T12:43:58.210Z,57.95
2018-06-05T12:46:27.313Z,59.81
2018-06-05T12:48:56.449Z,58.41
2018-06-05T12:51:25.486Z,58.74
2018-06-05T12:53:54.479Z,59.06
2018-06-05T12:56:23.685Z,58.45
2018-06-05T12:58:52.699Z,60.32
2018-06-05T13:01:21.744Z,59.48
2018-06-05T13:03:50.816Z,59.71
2018-06-05T13:06:19.773Z,57.94
2018-06-05T13:08:49.076Z,57.62
2018-06-05T13:11:19.445Z,56.63
2018-06-05T13:13:50.300Z,50.78
2018-06-05T13:16:19.472Z,48.38
2018-06-05T13:18:48.568Z,48.96
2018-06-05T13:21:17.717Z,43.99
2018-06-05T13:23:46.834Z,43.87
2018-06-05T13:26:16.319Z,43.25
2018-06-05T13:28:45.922Z,42.62
2018-06-05T13:31:14.939Z,43.62
2018-06-05T13:33:44.014Z,41.43
2018-06-05T13:36:13.147Z,36.22
2018-06-05T13:38:42.215Z,37.89
2018-06-05T13:41:11.851Z,38.39
2018-06-05T13:43:40.869Z,34.90
2018-06-05T13:46:10.825Z,34.82
2018-06-05T13:48:40.840Z,37.00
2018-06-05T13:51:09.880Z,37.00
2018-06-05T13:53:40.258Z,38.09
2018-06-05T13:56:09.378Z,39.80
2018-06-05T13:58:38.379Z,38.57
2018-06-05T14:01:07.502Z,38.94
2018-06-05T14:03:37.275Z,39.27
2018-06-05T14:06:06.748Z,42.20
2018-06-05T14:08:35.928Z,40.03
2018-06-05T14:11:04.958Z,37.72
2018-06-05T14:13:34.019Z,36.22
2018-06-05T14:16:03.152Z,36.48
2018-06-05T14:18:32.287Z,37.60
2018-06-05T14:21:01.354Z,40.13
2018-06-05T14:23:30.454Z,41.85
2018-06-05T14:26:01.664Z,45.95
2018-06-05T14:28:30.718Z,48.57
2018-06-05T14:30:59.779Z,48.31
2018-06-05T14:33:28.768Z,52.09
2018-06-05T14:35:57.818Z,49.14
2018-06-05T14:38:26.857Z,50.10
2018-06-05T14:40:55.920Z,51.32
2018-06-05T14:43:24.921Z,53.74
2018-06-05T14:45:53.982Z,55.15
2018-06-05T14:48:22.973Z,56.25
2018-06-05T14:50:52.037Z,55.28
2018-06-05T14:53:21.239Z,55.19
2018-06-05T14:55:50.260Z,56.87
2018-06-05T14:58:19.895Z,55.76
2018-06-05T15:00:49.110Z,54.49
2018-06-05T15:03:18.237Z,49.82
2018-06-05T15:05:47.196Z,51.74
2018-06-05T15:08:16.199Z,53.95
2018-06-05T15:10:45.269Z,53.44
2018-06-05T15:13:14.353Z,53.08
2018-06-05T15:15:43.316Z,52.44
2018-06-05T15:18:12.386Z,46.42
2018-06-05T15:20:41.443Z,44.97
2018-06-05T15:23:10.565Z,45.46
2018-06-05T15:25:39.732Z,47.01
2018-06-05T15:28:08.793Z,45.36
2018-06-05T15:30:37.882Z,43.11
2018-06-05T15:33:06.959Z,47.73
2018-06-05T15:35:36.070Z,47.79
2018-06-05T15:38:05.173Z,48.28
2018-06-05T15:40:34.283Z,49.88
2018-06-05T15:43:03.392Z,50.83
2018-06-05T15:45:32.429Z,53.03
2018-06-05T15:48:01.463Z,54.26
2018-06-05T15:50:30.553Z,53.89
2018-06-05T15:53:00.565Z,51.91
2018-06-05T15:55:29.656Z,48.02
2018-06-05T15:57:58.849Z,47.41
2018-06-05T16:00:27.913Z,46.66
2018-06-05T16:02:57.097Z,47.57
2018-06-05T16:05:26.138Z,44.33
2018-06-05T16:07:55.197Z,44.92
2018-06-05T16:10:25.371Z,46.76
2018-06-05T16:12:54.462Z,45.70
2018-06-05T16:15:23.831Z,45.32
2018-06-05T16:17:53.551Z,46.03
2018-06-05T16:20:22.848Z,46.12
2018-06-05T16:22:52.252Z,45.86
2018-06-05T16:25:21.520Z,45.84
2018-06-05T16:27:50.986Z,47.30
2018-06-05T16:30:20.353Z,46.66
2018-06-05T16:32:49.738Z,44.99
2018-06-05T16:35:19.445Z,47.69
2018-06-05T16:37:48.900Z,48.53
2018-06-05T16:40:18.827Z,45.88
2018-06-05T16:42:47.996Z,46.06
2018-06-05T16:45:17.051Z,46.22
2018-06-05T16:47:46.187Z,45.50
2018-06-05T16:50:15.284Z,47.20
2018-06-05T16:52:44.337Z,49.30
2018-06-05T16:55:14.506Z,50.65
2018-06-05T16:57:43.542Z,47.64
2018-06-05T17:00:12.726Z,48.31
2018-06-05T17:02:41.757Z,50.82
2018-06-05T17:05:10.853Z,50.78
2018-06-05T17:07:39.828Z,51.04
2018-06-05T17:10:10.017Z,52.38
2018-06-05T17:12:39.043Z,51.42
2018-06-05T17:15:08.156Z,50.73
2018-06-05T17:17:37.206Z,51.45
2018-06-05T17:20:06.212Z,50.97
2018-06-05T17:22:35.258Z,50.90
2018-06-05T17:25:04.444Z,49.88
2018-06-05T17:27:33.841Z,50.57
2018-06-05T17:30:02.839Z,50.53
2018-06-05T17:32:31.831Z,50.62
2018-06-05T17:35:00.842Z,50.89
2018-06-05T17:37:29.885Z,51.69
2018-06-05T17:39:59.012Z,51.11
2018-06-05T17:42:27.991Z,50.59
2018-06-05T17:44:57.102Z,49.17
2018-06-05T17:47:26.285Z,50.93
2018-06-05T17:49:55.353Z,51.33
2018-06-05T17:52:24.394Z,51.74
2018-06-05T17:54:54.137Z,52.88
2018-06-05T17:57:23.309Z,52.21
2018-06-05T17:59:52.582Z,51.88
2018-06-05T18:02:21.789Z,51.73
2018-06-05T18:04:50.972Z,52.96
2018-06-05T18:07:20.600Z,52.61
2018-06-05T18:09:50.469Z,52.08
2018-06-05T18:12:19.655Z,52.45
2018-06-05T18:14:48.753Z,52.31
2018-06-05T18:17:18.016Z,53.21
2018-06-05T18:19:47.231Z,53.75
2018-06-05T18:22:16.629Z,56.06
2018-06-05T18:24:45.708Z,57.21
2018-06-05T18:27:15.986Z,57.69
2018-06-05T18:29:45.767Z,59.71
2018-06-05T18:32:15.595Z,59.70
2018-06-05T18:34:45.701Z,58.49
2018-06-05T18:37:15.036Z,58.94
2018-06-05T18:39:44.118Z,58.03
2018-06-05T18:42:13.368Z,59.35
2018-06-05T18:44:42.695Z,60.72
2018-06-05T18:47:11.983Z,60.00
2018-06-05T18:49:41.032Z,59.02
2018-06-05T18:52:10.234Z,57.17
2018-06-05T18:54:39.578Z,57.46
2018-06-05T18:57:08.790Z,57.91
2018-06-05T18:59:37.953Z,58.38
2018-06-05T19:02:07.307Z,59.71
2018-06-05T19:04:36.533Z,61.40
2018-06-05T19:07:05.623Z,62.58
2018-06-05T19:09:34.816Z,62.66
2018-06-05T19:12:04.140Z,63.14
2018-06-05T19:14:35.606Z,64.18
2018-06-05T19:17:04.722Z,63.93
2018-06-05T19:19:34.058Z,64.42
2018-06-05T19:22:03.895Z,65.73
2018-06-05T19:24:33.068Z,66.31
2018-06-05T19:27:02.437Z,64.66
2018-06-05T19:29:31.744Z,65.95
2018-06-05T19:32:00.963Z,64.74
2018-06-05T19:34:30.226Z,64.16
2018-06-05T19:36:59.462Z,62.71
2018-06-05T19:39:28.636Z,63.31
2018-06-05T19:41:57.681Z,61.75
2018-06-05T19:44:26.821Z,60.89
2018-06-05T19:46:56.215Z,61.74
2018-06-05T19:49:25.352Z,60.93
2018-06-05T19:51:54.825Z,59.90
2018-06-05T19:54:24.015Z,60.83
2018-06-05T19:56:54.538Z,59.75
2018-06-05T19:59:24.683Z,59.73
2018-06-05T20:01:54.030Z,58.74
2018-06-05T20:04:23.430Z,59.48
2018-06-05T20:06:53.761Z,58.88
2018-06-05T20:09:23.073Z,58.94
2018-06-05T20:11:52.508Z,60.04
2018-06-05T20:14:21.989Z,60.71
2018-06-05T20:16:51.395Z,60.47
2018-06-05T20:19:21.205Z,61.25
2018-06-05T20:21:50.360Z,62.41
2018-06-05T20:24:19.386Z,61.60
2018-06-05T20:26:48.510Z,62.69
2018-06-05T20:29:17.854Z,62.45
2018-06-05T20:31:46.939Z,61.89
2018-06-05T20:34:16.084Z,61.67
2018-06-05T20:36:45.135Z,61.52
2018-06-05T20:39:14.172Z,60.89
2018-06-05T20:41:43.190Z,62.23
2018-06-05T20:44:12.369Z,63.30
2018-06-05T20:46:41.469Z,64.62
2018-06-05T20:49:10.493Z,64.72
2018-06-05T20:51:39.481Z,66.75
2018-06-05T20:54:08.534Z,67.26
2018-06-05T20:56:37.516Z,66.10
2018-06-05T20:59:06.567Z,68.05
2018-06-05T21:01:36.291Z,67.96
2018-06-05T21:04:05.321Z,67.12
2018-06-05T21:06:40.777Z,67.62
2018-06-05T21:09:10.070Z,67.42
2018-06-05T21:11:39.127Z,68.08
2018-06-05T21:14:08.152Z,69.00
2018-06-05T21:16:37.197Z,70.20
2018-06-05T21:19:06.746Z,71.35
2018-06-05T21:21:35.858Z,70.17
2018-06-05T21:24:05.009Z,70.38
2018-06-05T21:26:34.101Z,71.41
2018-06-05T21:29:03.200Z,71.42
2018-06-05T21:31:32.327Z,72.15
2018-06-05T21:34:01.358Z,71.18
2018-06-05T21:36:30.731Z,72.02
2018-06-05T21:38:59.953Z,72.04
2018-06-05T21:41:29.287Z,73.29
2018-06-05T21:43:58.356Z,73.33
2018-06-05T21:46:27.519Z,74.36
2018-06-05T21:48:56.462Z,73.33
2018-06-05T21:51:25.538Z,72.80
2018-06-05T21:53:54.509Z,73.47
2018-06-05T21:56:23.719Z,73.86
2018-06-05T21:58:53.107Z,72.82
2018-06-05T22:01:22.301Z,73.87
2018-06-05T22:03:51.253Z,73.56
2018-06-05T22:06:20.286Z,74.48
2018-06-05T22:08:49.314Z,74.78
2018-06-05T22:11:18.442Z,74.21
2018-06-05T22:13:47.477Z,75.01
2018-06-05T22:16:16.564Z,74.64
2018-06-05T22:18:45.590Z,74.84
2018-06-05T22:21:14.569Z,74.79
2018-06-05T22:23:43.748Z,75.68
2018-06-05T22:26:12.757Z,74.93
2018-06-05T22:28:41.978Z,75.48
2018-06-05T22:31:10.929Z,75.37
2018-06-05T22:33:39.994Z,76.59
2018-06-05T22:36:09.038Z,76.54
2018-06-05T22:38:38.034Z,76.76
2018-06-05T22:41:07.091Z,75.71
2018-06-05T22:43:36.088Z,76.55
2018-06-05T22:46:05.141Z,76.30
2018-06-05T22:48:34.311Z,75.49
2018-06-05T22:51:03.281Z,76.23
2018-06-05T22:53:32.443Z,75.79
2018-06-05T22:56:01.442Z,75.58
2018-06-05T22:58:30.490Z,76.00
2018-06-05T23:00:59.517Z,75.46
2018-06-05T23:03:28.635Z,76.61
2018-06-05T23:05:57.577Z,76.54
2018-06-05T23:08:26.567Z,77.37
2018-06-05T23:10:56.021Z,77.29
2018-06-05T23:13:25.059Z,77.84
2018-06-05T23:15:54.148Z,76.91
2018-06-05T23:18:23.200Z,78.09
2018-06-05T23:20:52.300Z,77.86
2018-06-05T23:23:21.293Z,78.08
2018-06-05T23:25:50.400Z,79.19
2018-06-05T23:28:19.333Z,78.35
2018-06-05T23:30:48.347Z,78.46
2018-06-05T23:33:17.391Z,78.56
2018-06-05T23:35:46.426Z,78.89
2018-06-05T23:38:15.881Z,79.35
2018-06-05T23:40:44.877Z,79.61
2018-06-05T23:43:14.986Z,79.77
2018-06-05T23:45:43.913Z,78.73
2018-06-05T23:48:13.130Z,78.93
2018-06-05T23:50:42.086Z,78.26
2018-06-05T23:53:11.240Z,79.54
2018-06-05T23:55:40.215Z,79.23
2018-06-05T23:58:09.419Z,78.84
